createdAt,value
2023-02-08T00:01:00.269Z,8.30
2023-02-08T00:03:29.160Z,9.23
2023-02-08T00:05:56.176Z,9.57
2023-02-08T00:08:23.169Z,9.18
2023-02-08T00:10:50.191Z,10.57
2023-02-08T00:13:17.244Z,12.70
2023-02-08T00:15:46.123Z,10.20
2023-02-08T00:18:13.922Z,8.88
2023-02-08T00:20:43.288Z,11.77
2023-02-08T00:23:10.795Z,10.50
2023-02-08T00:25:38.096Z,11.00
2023-02-08T00:28:07.249Z,10.73
2023-02-08T00:30:36.202Z,7.38
2023-02-08T00:33:03.621Z,10.05
2023-02-08T00:35:31.344Z,9.02
2023-02-08T00:37:58.343Z,9.77
2023-02-08T00:40:26.186Z,8.55
2023-02-08T00:42:53.452Z,9.25
2023-02-08T00:45:20.505Z,10.38
2023-02-08T00:47:47.436Z,12.90
2023-02-08T00:50:14.897Z,10.10
2023-02-08T00:52:41.944Z,15.38
2023-02-08T00:55:09.150Z,11.20
2023-02-08T00:57:36.605Z,10.38
2023-02-08T01:00:06.148Z,10.73
2023-02-08T01:02:33.460Z,10.57
2023-02-08T01:05:00.546Z,10.30
2023-02-08T01:07:27.516Z,9.13
2023-02-08T01:09:54.519Z,8.00
2023-02-08T01:12:21.451Z,8.95
2023-02-08T01:14:48.431Z,10.13
2023-02-08T01:17:15.405Z,8.73
2023-02-08T01:19:42.700Z,9.07
2023-02-08T01:22:09.773Z,10.43
2023-02-08T01:24:36.767Z,9.40
2023-02-08T01:27:03.980Z,9.00
2023-02-08T01:29:31.102Z,9.40
2023-02-08T01:31:58.066Z,11.50
2023-02-08T01:34:25.063Z,9.00
2023-02-08T01:36:52.077Z,10.90
2023-02-08T01:39:19.142Z,11.65
2023-02-08T01:41:46.806Z,9.45
2023-02-08T01:44:13.776Z,11.45
2023-02-08T01:46:44.028Z,10.57
2023-02-08T01:49:34.775Z,8.05
2023-02-08T01:52:16.455Z,9.73
2023-02-08T01:54:57.739Z,10.18
2023-02-08T01:57:26.469Z,9.65
2023-02-08T02:00:04.436Z,7.32
2023-02-08T02:02:33.680Z,9.60
2023-02-08T02:05:01.746Z,9.63
2023-02-08T02:07:31.078Z,7.57
2023-02-08T02:10:24.749Z,7.93
2023-02-08T02:12:53.881Z,9.95
2023-02-08T02:15:21.192Z,10.43
2023-02-08T02:17:48.437Z,7.35
2023-02-08T02:20:28.090Z,10.55
2023-02-08T02:23:00.732Z,8.82
2023-02-08T02:25:56.685Z,8.73
2023-02-08T02:28:56.718Z,9.27
2023-02-08T02:32:03.930Z,5.40
2023-02-08T02:35:02.884Z,7.50
2023-02-08T02:37:57.279Z,6.78
2023-02-08T02:41:05.926Z,7.97
2023-02-08T02:43:52.652Z,7.10
2023-02-08T02:46:45.743Z,7.40
2023-02-08T02:49:51.058Z,8.60
2023-02-08T02:52:33.715Z,8.50
2023-02-08T02:55:19.964Z,7.18
2023-02-08T02:57:49.997Z,3.63
2023-02-08T03:00:24.992Z,7.25
2023-02-08T03:02:52.834Z,6.75
2023-02-08T03:05:19.869Z,7.43
2023-02-08T03:08:04.882Z,5.18
2023-02-08T03:10:52.869Z,7.57
2023-02-08T03:13:53.034Z,7.57
2023-02-08T03:16:40.501Z,7.70
2023-02-08T03:19:39.624Z,5.97
2023-02-08T03:22:47.862Z,5.70
2023-02-08T03:25:44.482Z,3.80
2023-02-08T03:28:42.399Z,6.53
2023-02-08T03:31:40.024Z,5.20
2023-02-08T03:34:31.408Z,5.90
2023-02-08T03:37:11.046Z,5.95
2023-02-08T03:39:40.925Z,6.57
2023-02-08T03:42:17.800Z,5.47
2023-02-08T03:44:59.881Z,8.43
2023-02-08T03:47:32.798Z,5.88
2023-02-08T03:50:07.340Z,3.95
2023-02-08T03:52:36.122Z,7.07
2023-02-08T03:55:18.319Z,3.33
2023-02-08T03:57:54.820Z,8.25
2023-02-08T04:00:23.160Z,6.80
2023-02-08T04:03:19.529Z,9.10
2023-02-08T04:05:47.096Z,9.45
2023-02-08T04:08:14.305Z,7.60
2023-02-08T04:10:41.804Z,7.93
2023-02-08T04:13:09.021Z,6.40
2023-02-08T04:15:36.066Z,5.57
2023-02-08T04:18:03.424Z,6.20
2023-02-08T04:20:30.448Z,10.07
2023-02-08T04:22:57.388Z,5.38
2023-02-08T04:25:24.434Z,5.82
2023-02-08T04:27:51.468Z,7.07
2023-02-08T04:30:18.696Z,9.80
2023-02-08T04:32:45.746Z,6.10
2023-02-08T04:35:12.710Z,6.15
2023-02-08T04:37:39.682Z,8.57
2023-02-08T04:40:07.185Z,9.23
2023-02-08T04:42:35.116Z,7.45
2023-02-08T04:45:02.100Z,7.13
2023-02-08T04:47:29.026Z,5.88
2023-02-08T04:49:55.962Z,7.72
2023-02-08T04:52:22.964Z,7.82
2023-02-08T04:54:49.932Z,6.93
2023-02-08T04:57:16.953Z,7.93
2023-02-08T04:59:43.961Z,7.18
2023-02-08T05:02:10.963Z,8.10
2023-02-08T05:04:37.999Z,7.32
2023-02-08T05:07:05.043Z,7.03
2023-02-08T05:09:32.026Z,9.20
2023-02-08T05:11:58.956Z,11.35
2023-02-08T05:14:26.287Z,5.60
2023-02-08T05:16:53.293Z,8.15
2023-02-08T05:19:20.292Z,7.65
2023-02-08T05:21:47.224Z,7.13
2023-02-08T05:24:14.251Z,6.93
2023-02-08T05:26:41.853Z,8.63
2023-02-08T05:29:08.979Z,8.30
2023-02-08T05:31:36.492Z,7.80
2023-02-08T05:34:03.972Z,9.38
2023-02-08T05:36:31.023Z,8.85
2023-02-08T05:38:58.058Z,10.23
2023-02-08T05:41:25.053Z,6.13
2023-02-08T05:43:52.040Z,9.80
2023-02-08T05:46:19.140Z,7.28
2023-02-08T05:48:47.083Z,8.35
2023-02-08T05:51:14.143Z,8.52
2023-02-08T05:53:41.094Z,7.03
2023-02-08T05:56:08.310Z,4.72
2023-02-08T05:58:35.388Z,8.20
2023-02-08T06:01:07.664Z,7.30
2023-02-08T06:03:34.646Z,9.77
2023-02-08T06:06:01.773Z,8.68
2023-02-08T06:08:28.832Z,8.32
2023-02-08T06:10:58.643Z,6.90
2023-02-08T06:13:25.827Z,6.00
2023-02-08T06:15:52.870Z,5.43
2023-02-08T06:18:19.829Z,7.63
2023-02-08T06:20:46.835Z,6.22
2023-02-08T06:23:13.933Z,5.75
2023-02-08T06:25:40.896Z,7.07
2023-02-08T06:28:10.738Z,13.25
2023-02-08T06:30:39.239Z,8.07
2023-02-08T06:33:06.597Z,6.05
2023-02-08T06:35:33.759Z,6.93
2023-02-08T06:38:00.879Z,5.10
2023-02-08T06:40:28.020Z,5.20
2023-02-08T06:42:55.120Z,6.57
2023-02-08T06:45:22.227Z,10.60
2023-02-08T06:47:49.261Z,6.28
2023-02-08T06:50:16.333Z,3.30
2023-02-08T06:52:43.309Z,2.75
2023-02-08T06:55:10.528Z,1.83
2023-02-08T06:57:37.478Z,1.33
2023-02-08T07:00:06.417Z,2.13
2023-02-08T07:02:33.805Z,3.72
2023-02-08T07:05:00.876Z,1.23
2023-02-08T07:07:28.273Z,2.63
2023-02-08T07:09:55.241Z,3.20
2023-02-08T07:12:22.198Z,3.25
2023-02-08T07:14:49.333Z,1.70
2023-02-08T07:17:16.369Z,1.95
2023-02-08T07:19:43.418Z,2.63
2023-02-08T07:22:10.417Z,9.82
2023-02-08T07:24:40.170Z,8.30
2023-02-08T07:27:10.384Z,7.25
2023-02-08T07:29:38.004Z,6.35
2023-02-08T07:32:07.572Z,8.68
2023-02-08T07:34:37.375Z,9.15
2023-02-08T07:37:04.690Z,8.88
2023-02-08T07:39:31.947Z,6.00
2023-02-08T07:41:59.655Z,7.38
2023-02-08T07:44:27.018Z,8.98
2023-02-08T07:46:54.469Z,4.68
2023-02-08T07:49:21.538Z,6.82
2023-02-08T07:51:48.625Z,5.40
2023-02-08T07:54:15.807Z,9.82
2023-02-08T07:56:42.900Z,7.22
2023-02-08T07:59:09.924Z,7.75
2023-02-08T08:01:36.961Z,6.22
2023-02-08T08:04:04.430Z,9.43
2023-02-08T08:06:31.628Z,6.45
2023-02-08T08:08:58.572Z,7.85
2023-02-08T08:11:25.702Z,6.10
2023-02-08T08:13:52.850Z,7.10
2023-02-08T08:16:20.518Z,6.32
2023-02-08T08:18:48.431Z,9.35
2023-02-08T08:21:16.772Z,12.02
2023-02-08T08:23:44.157Z,6.28
2023-02-08T08:26:18.841Z,6.28
2023-02-08T08:28:46.912Z,5.85
2023-02-08T08:31:17.331Z,7.03
2023-02-08T08:33:44.554Z,6.15
2023-02-08T08:36:11.635Z,6.85
2023-02-08T08:38:39.408Z,6.78
2023-02-08T08:41:16.480Z,7.78
2023-02-08T08:43:43.545Z,5.35
2023-02-08T08:46:10.792Z,6.20
2023-02-08T08:48:38.937Z,6.00
2023-02-08T08:51:07.532Z,6.15
2023-02-08T08:53:35.127Z,4.38
2023-02-08T08:56:02.295Z,5.70
2023-02-08T08:58:29.652Z,6.97
2023-02-08T09:01:00.140Z,7.18
2023-02-08T09:03:28.542Z,14.95
2023-02-08T09:05:55.621Z,5.13
2023-02-08T09:08:22.844Z,2.58
2023-02-08T09:10:50.076Z,3.30
2023-02-08T09:13:19.850Z,2.72
2023-02-08T09:15:48.814Z,2.08
2023-02-08T09:18:15.986Z,1.48
2023-02-08T09:20:43.655Z,2.92
2023-02-08T09:23:11.122Z,2.03
2023-02-08T09:25:38.232Z,1.05
2023-02-08T09:28:05.650Z,2.20
2023-02-08T09:30:33.544Z,1.55
2023-02-08T09:33:00.550Z,1.33
2023-02-08T09:35:27.554Z,3.72
2023-02-08T09:37:57.800Z,1.98
2023-02-08T09:40:30.778Z,2.58
2023-02-08T09:43:25.061Z,2.88
2023-02-08T09:46:01.741Z,2.10
2023-02-08T09:48:41.114Z,2.90
2023-02-08T09:51:16.741Z,2.42
2023-02-08T09:53:51.001Z,3.45
2023-02-08T09:56:26.363Z,7.32
2023-02-08T09:58:55.018Z,3.10
2023-02-08T10:01:24.168Z,4.32
2023-02-08T10:04:08.698Z,3.90
2023-02-08T10:06:36.050Z,4.75
2023-02-08T10:09:07.559Z,1.77
2023-02-08T10:12:09.109Z,1.95
2023-02-08T10:15:04.389Z,2.28
2023-02-08T10:17:57.809Z,2.20
2023-02-08T10:21:18.641Z,1.83
2023-02-08T10:24:44.688Z,3.58
2023-02-08T10:27:33.280Z,3.80
2023-02-08T10:30:17.940Z,3.50
2023-02-08T10:33:10.576Z,3.38
2023-02-08T10:35:48.293Z,2.13
2023-02-08T10:38:21.240Z,3.17
2023-02-08T10:40:55.961Z,2.80
2023-02-08T10:43:48.836Z,2.92
2023-02-08T10:46:18.987Z,4.07
2023-02-08T10:49:35.053Z,2.53
2023-02-08T10:52:02.676Z,3.08
2023-02-08T10:54:29.748Z,3.38
2023-02-08T10:57:12.996Z,4.95
2023-02-08T11:02:31.954Z,1.98
2023-02-08T11:05:14.590Z,4.35
2023-02-08T11:07:41.924Z,5.15
2023-02-08T11:10:27.232Z,3.30
2023-02-08T11:13:20.661Z,3.67
2023-02-08T11:15:56.878Z,4.45
2023-02-08T11:18:35.845Z,2.47
2023-02-08T11:21:10.637Z,3.17
2023-02-08T11:23:42.685Z,3.67
2023-02-08T11:26:37.753Z,3.65
2023-02-08T11:29:23.957Z,2.67
2023-02-08T11:32:00.158Z,2.03
2023-02-08T11:34:35.989Z,2.95
2023-02-08T11:37:28.483Z,2.10
2023-02-08T11:40:00.502Z,2.50
2023-02-08T11:42:47.179Z,2.92
2023-02-08T11:45:24.397Z,2.28
2023-02-08T11:47:52.410Z,2.88
2023-02-08T11:50:27.220Z,1.85
2023-02-08T11:53:00.697Z,15.80
2023-02-08T11:55:32.265Z,2.80
2023-02-08T11:58:11.936Z,2.53
2023-02-08T12:00:41.020Z,2.28
2023-02-08T12:03:33.601Z,2.65
2023-02-08T12:06:40.418Z,3.43
2023-02-08T12:09:30.974Z,2.80
2023-02-08T12:12:13.726Z,2.85
2023-02-08T12:14:47.430Z,3.45
2023-02-08T12:17:50.525Z,2.15
2023-02-08T12:20:37.816Z,1.90
2023-02-08T12:23:16.232Z,3.33
2023-02-08T12:26:14.170Z,1.73
2023-02-08T12:29:08.863Z,1.98
2023-02-08T12:31:55.226Z,3.35
2023-02-08T12:34:41.675Z,4.22
2023-02-08T12:38:08.012Z,3.25
2023-02-08T12:41:02.666Z,2.13
2023-02-08T12:43:58.466Z,4.90
2023-02-08T12:46:37.332Z,1.83
2023-02-08T12:49:36.077Z,1.98
2023-02-08T12:52:32.781Z,3.25
2023-02-08T12:55:20.072Z,2.65
2023-02-08T12:57:53.201Z,3.78
2023-02-08T13:00:32.883Z,3.00
2023-02-08T13:03:44.252Z,2.53
2023-02-08T13:06:27.433Z,3.97
2023-02-08T13:09:27.229Z,3.75
2023-02-08T13:12:02.747Z,1.73
2023-02-08T13:14:45.251Z,3.53
2023-02-08T13:17:24.596Z,2.85
2023-02-08T13:20:05.699Z,2.83
2023-02-08T13:22:40.615Z,2.88
2023-02-08T13:25:36.473Z,2.55
2023-02-08T13:28:09.043Z,2.67
2023-02-08T13:30:40.094Z,3.13
2023-02-08T13:33:21.794Z,2.50
2023-02-08T13:35:53.759Z,2.50
2023-02-08T13:38:36.802Z,2.72
2023-02-08T13:41:27.539Z,1.58
2023-02-08T13:44:18.833Z,2.05
2023-02-08T13:46:49.913Z,2.75
2023-02-08T13:50:09.665Z,3.00
2023-02-08T13:52:47.477Z,2.28
2023-02-08T13:55:38.167Z,2.60
2023-02-08T13:58:14.369Z,3.15
2023-02-08T14:01:13.204Z,1.83
2023-02-08T14:03:40.814Z,1.00
2023-02-08T14:06:25.308Z,4.50
2023-02-08T14:09:10.344Z,2.20
2023-02-08T14:12:18.883Z,2.03
2023-02-08T14:15:14.714Z,2.45
2023-02-08T14:17:48.959Z,2.67
2023-02-08T14:20:42.638Z,1.35
2023-02-08T14:23:26.929Z,1.75
2023-02-08T14:25:56.917Z,2.33
2023-02-08T14:28:27.643Z,1.10
2023-02-08T14:30:58.785Z,1.25
2023-02-08T14:33:31.427Z,1.10
2023-02-08T14:36:06.672Z,2.63
2023-02-08T14:38:50.941Z,3.35
2023-02-08T14:42:01.029Z,2.13
2023-02-08T14:44:43.240Z,2.78
2023-02-08T14:47:25.304Z,2.67
2023-02-08T14:50:08.291Z,2.53
2023-02-08T14:52:35.975Z,1.80
2023-02-08T14:55:17.908Z,1.48
2023-02-08T14:57:45.104Z,1.67
2023-02-08T15:00:33.959Z,2.08
2023-02-08T15:03:03.730Z,1.63
2023-02-08T15:05:39.989Z,0.80
2023-02-08T15:08:07.135Z,2.47
2023-02-08T15:10:35.189Z,1.30
2023-02-08T15:13:06.747Z,0.90
2023-02-08T15:15:43.984Z,2.05
2023-02-08T15:18:23.661Z,1.58
2023-02-08T15:21:08.362Z,3.00
2023-02-08T15:23:35.408Z,1.98
2023-02-08T15:26:06.632Z,1.00
2023-02-08T15:28:44.035Z,1.95
2023-02-08T15:31:20.370Z,1.05
2023-02-08T15:33:48.018Z,2.05
2023-02-08T15:36:36.183Z,2.25
2023-02-08T15:39:11.889Z,1.33
2023-02-08T15:41:38.936Z,2.97
2023-02-08T15:44:24.722Z,2.50
2023-02-08T15:49:37.867Z,1.30
2023-02-08T15:52:07.250Z,2.72
2023-02-08T15:54:34.614Z,1.55
2023-02-08T15:57:38.953Z,1.90
2023-02-08T16:00:15.895Z,2.22
2023-02-08T16:02:44.091Z,2.63
2023-02-08T16:05:22.474Z,3.97
2023-02-08T16:07:51.796Z,6.20
2023-02-08T16:10:28.072Z,3.92
2023-02-08T16:13:03.330Z,4.85
2023-02-08T16:15:42.199Z,3.95
2023-02-08T16:18:35.923Z,4.05
2023-02-08T16:21:07.309Z,5.38
2023-02-08T16:23:38.451Z,4.63
2023-02-08T16:26:23.491Z,4.93
2023-02-08T16:29:04.272Z,5.25
2023-02-08T16:31:35.422Z,5.40
2023-02-08T16:34:14.138Z,5.47
2023-02-08T16:36:47.967Z,6.63
2023-02-08T16:39:14.858Z,8.45
2023-02-08T16:42:09.697Z,7.95
2023-02-08T16:45:18.661Z,8.63
2023-02-08T16:48:00.137Z,5.55
2023-02-08T16:50:33.972Z,8.18
2023-02-08T16:53:05.103Z,5.20
2023-02-08T16:55:36.185Z,6.82
2023-02-08T16:58:03.297Z,7.45
2023-02-08T17:00:34.436Z,5.47
2023-02-08T17:03:02.305Z,5.05
2023-02-08T17:05:35.200Z,6.22
2023-02-08T17:08:07.850Z,4.47
2023-02-08T17:10:35.736Z,5.88
2023-02-08T17:13:19.438Z,3.72
2023-02-08T17:15:49.978Z,6.43
2023-02-08T17:18:17.069Z,5.40
2023-02-08T17:20:44.781Z,6.70
2023-02-08T17:23:12.495Z,17.75
2023-02-08T17:25:39.831Z,19.70
2023-02-08T17:28:17.167Z,20.65
2023-02-08T17:30:45.395Z,23.90
2023-02-08T17:33:18.518Z,30.30
2023-02-08T17:35:51.895Z,25.77
2023-02-08T17:38:20.951Z,20.73
2023-02-08T17:40:48.042Z,32.28
2023-02-08T17:43:15.268Z,28.75
2023-02-08T17:45:44.594Z,9.80
2023-02-08T17:48:15.682Z,4.72
2023-02-08T17:50:47.886Z,5.55
2023-02-08T17:53:15.974Z,2.17
2023-02-08T17:55:45.268Z,2.25
2023-02-08T17:58:13.053Z,3.30
2023-02-08T18:00:40.309Z,1.73
2023-02-08T18:03:07.454Z,1.80
2023-02-08T18:05:34.683Z,4.53
2023-02-08T18:08:01.750Z,1.98
2023-02-08T18:10:28.811Z,4.10
2023-02-08T18:12:56.226Z,3.63
2023-02-08T18:15:24.226Z,3.15
2023-02-08T18:17:51.309Z,2.05
2023-02-08T18:20:19.004Z,4.18
2023-02-08T18:22:46.466Z,2.00
2023-02-08T18:25:14.537Z,2.90
2023-02-08T18:27:41.616Z,3.47
2023-02-08T18:30:11.144Z,4.90
2023-02-08T18:32:38.594Z,3.35
2023-02-08T18:35:07.403Z,3.65
2023-02-08T18:37:36.126Z,2.30
2023-02-08T18:40:04.581Z,4.53
2023-02-08T18:42:34.115Z,3.50
2023-02-08T18:45:03.393Z,3.53
2023-02-08T18:47:30.523Z,4.00
2023-02-08T18:49:57.657Z,2.85
2023-02-08T18:52:24.792Z,8.88
2023-02-08T18:54:51.855Z,2.05
2023-02-08T18:57:19.761Z,4.15
2023-02-08T18:59:46.854Z,4.35
2023-02-08T19:02:23.599Z,9.30
2023-02-08T19:04:50.659Z,6.22
2023-02-08T19:07:17.686Z,8.80
2023-02-08T19:09:44.619Z,7.90
2023-02-08T19:12:15.474Z,13.30
2023-02-08T19:14:43.479Z,12.30
2023-02-08T19:17:12.441Z,10.02
2023-02-08T19:19:41.445Z,11.93
2023-02-08T19:22:08.536Z,13.00
2023-02-08T19:24:35.698Z,7.90
2023-02-08T19:27:02.678Z,10.05
2023-02-08T19:29:29.826Z,8.50
2023-02-08T19:31:58.329Z,33.03
2023-02-08T19:34:26.024Z,25.48
2023-02-08T19:36:54.979Z,8.93
2023-02-08T19:39:25.902Z,3.55
2023-02-08T19:41:53.795Z,1.40
2023-02-08T19:44:21.852Z,3.13
2023-02-08T19:46:51.643Z,2.15
2023-02-08T19:49:18.779Z,1.20
2023-02-08T19:51:46.268Z,1.77
2023-02-08T19:54:18.124Z,1.35
2023-02-08T19:56:45.987Z,1.95
2023-02-08T19:59:20.762Z,2.85
2023-02-08T20:01:48.284Z,2.67
2023-02-08T20:04:15.901Z,1.83
2023-02-08T20:06:44.998Z,3.78
2023-02-08T20:09:15.198Z,2.42
2023-02-08T20:11:56.321Z,3.38
2023-02-08T20:14:32.865Z,4.25
2023-02-08T20:17:01.923Z,6.20
2023-02-08T20:19:29.308Z,3.17
2023-02-08T20:21:56.464Z,3.35
2023-02-08T20:24:23.423Z,4.45
2023-02-08T20:26:50.944Z,2.53
2023-02-08T20:29:18.246Z,4.15
2023-02-08T20:31:48.169Z,4.10
2023-02-08T20:34:18.658Z,9.90
2023-02-08T20:37:05.298Z,12.30
2023-02-08T20:39:33.847Z,9.95
2023-02-08T20:42:00.968Z,11.15
2023-02-08T20:44:28.591Z,12.50
2023-02-08T20:46:55.700Z,12.57
2023-02-08T20:49:25.606Z,10.40
2023-02-08T20:51:54.153Z,11.63
2023-02-08T20:54:23.931Z,12.13
2023-02-08T20:56:52.822Z,18.02
2023-02-08T20:59:19.906Z,11.23
2023-02-08T21:01:47.097Z,11.77
2023-02-08T21:04:14.687Z,10.88
2023-02-08T21:06:44.551Z,10.52
2023-02-08T21:09:17.387Z,12.60
2023-02-08T21:11:45.990Z,10.10
2023-02-08T21:14:18.825Z,9.77
2023-02-08T21:19:15.994Z,10.43
2023-02-08T21:21:43.483Z,14.15
2023-02-08T21:24:11.328Z,12.63
2023-02-08T21:26:38.328Z,15.93
2023-02-08T21:29:06.493Z,14.90
2023-02-08T21:31:36.596Z,13.82
2023-02-08T21:34:04.942Z,16.70
2023-02-08T21:36:32.899Z,14.73
2023-02-08T21:39:00.552Z,13.05
2023-02-08T21:41:31.573Z,14.13
2023-02-08T21:44:02.279Z,14.82
2023-02-08T21:46:30.259Z,14.40
2023-02-08T21:49:17.022Z,15.25
2023-02-08T21:52:03.377Z,12.90
2023-02-08T21:54:44.273Z,15.50
2023-02-08T21:57:29.805Z,14.88
2023-02-08T22:00:01.156Z,12.20
2023-02-08T22:02:30.325Z,13.63
2023-02-08T22:04:59.883Z,12.68
2023-02-08T22:07:27.484Z,13.60
2023-02-08T22:09:54.794Z,13.07
2023-02-08T22:12:23.314Z,17.17
2023-02-08T22:14:51.197Z,16.55
2023-02-08T22:17:18.430Z,15.90
2023-02-08T22:19:45.413Z,13.68
2023-02-08T22:22:12.421Z,15.73
2023-02-08T22:24:39.567Z,16.02
2023-02-08T22:27:06.693Z,12.98
2023-02-08T22:29:33.864Z,15.88
2023-02-08T22:32:01.353Z,18.33
2023-02-08T22:34:28.786Z,13.73
2023-02-08T22:36:55.804Z,12.77
2023-02-08T22:39:23.042Z,15.48
2023-02-08T22:41:50.154Z,15.45
2023-02-08T22:44:17.151Z,11.35
2023-02-08T22:46:44.191Z,16.40
2023-02-08T22:49:11.378Z,14.07
2023-02-08T22:51:38.654Z,18.90
2023-02-08T22:54:05.679Z,14.80
2023-02-08T22:56:32.853Z,12.95
2023-02-08T22:59:00.539Z,14.93
2023-02-08T23:01:28.601Z,14.57
2023-02-08T23:03:55.666Z,16.40
2023-02-08T23:06:22.633Z,14.48
2023-02-08T23:08:49.748Z,14.85
2023-02-08T23:11:17.016Z,14.85
2023-02-08T23:13:43.972Z,9.85
2023-02-08T23:16:16.578Z,14.70
2023-02-08T23:18:43.908Z,12.63
2023-02-08T23:21:17.803Z,13.15
2023-02-08T23:23:46.311Z,12.45
2023-02-08T23:26:17.946Z,14.40
2023-02-08T23:28:45.572Z,14.20
2023-02-08T23:31:14.808Z,9.48
2023-02-08T23:33:42.523Z,10.98
2023-02-08T23:36:14.262Z,9.65
2023-02-08T23:38:42.693Z,9.95
2023-02-08T23:41:21.589Z,11.52
2023-02-08T23:43:50.869Z,11.07
2023-02-08T23:46:26.305Z,10.13
2023-02-08T23:48:54.097Z,11.05
2023-02-08T23:51:24.516Z,12.55
2023-02-08T23:53:54.239Z,7.90
2023-02-08T23:56:30.338Z,11.88
2023-02-08T23:58:59.235Z,9.02
